DPO weather

Devonport Airport
Devonport, Tasmania, Australia

Public forecast

Using degrees Celsius for public forecast. Weather courtesy of forecast.io.

METAR (pilot weather report)

Closest report is Launceston Airport, 41.9 nm (77.6 km) ESE. Retrieved 2019/03/19 08:00 UTC (7 minutes ago):

YMLT 190800Z AUTO 16009KT 9999 // BKN042 OVC064 18/16 Q1018

TAF (pilot weather forecast)

Forecast is more than 12 hours old.

Closest forecast is Launceston Airport, 41.9 nm (77.6 km) ESE. Retrieved 2019/03/18 00:36 UTC (1 day ago):

TAF YMLT 182330Z 1900/1924 15012KT 9999 SCT040 FM190600 15014KT 9999 BKN040 FM191500 16008KT 9999 BKN010 FM192200 15012KT 9999 SCT020 BKN030